createdAt,value
2018-10-19T00:01:08.670Z,21.50
2018-10-19T00:03:38.542Z,14.27
2018-10-19T00:06:08.461Z,15.37
2018-10-19T00:08:38.330Z,14.53
2018-10-19T00:11:08.571Z,15.07
2018-10-19T00:13:38.455Z,14.77
2018-10-19T00:16:08.606Z,20.50
2018-10-19T00:18:38.683Z,18.03
2018-10-19T00:21:08.821Z,16.63
2018-10-19T00:23:38.900Z,16.67
2018-10-19T00:26:08.848Z,16.47
2018-10-19T00:28:39.097Z,16.40
2018-10-19T00:31:09.108Z,16.10
2018-10-19T00:33:39.331Z,17.90
2018-10-19T00:36:09.381Z,16.33
2018-10-19T00:38:39.411Z,16.83
2018-10-19T00:41:09.560Z,22.60
2018-10-19T00:43:39.427Z,16.80
2018-10-19T00:46:09.534Z,19.90
2018-10-19T00:48:39.765Z,20.27
2018-10-19T00:51:09.692Z,18.50
2018-10-19T00:53:39.731Z,21.73
2018-10-19T00:56:09.755Z,19.17
2018-10-19T00:58:39.742Z,22.50
2018-10-19T01:01:09.604Z,20.43
2018-10-19T01:03:39.771Z,18.67
2018-10-19T01:06:09.904Z,19.13
2018-10-19T01:08:39.999Z,20.97
2018-10-19T01:11:10.022Z,21.00
2018-10-19T01:13:39.946Z,20.70
2018-10-19T01:16:09.841Z,16.50
2018-10-19T01:18:40.254Z,20.43
2018-10-19T01:21:10.513Z,22.80
2018-10-19T01:23:40.427Z,21.33
2018-10-19T01:26:10.552Z,16.17
2018-10-19T01:28:40.523Z,21.50
2018-10-19T01:31:10.459Z,21.60
2018-10-19T01:33:40.892Z,21.00
2018-10-19T01:36:10.957Z,18.50
2018-10-19T01:38:40.837Z,21.23
2018-10-19T01:41:11.048Z,19.93
2018-10-19T01:43:40.924Z,17.53
2018-10-19T01:46:11.027Z,17.93
2018-10-19T01:48:41.230Z,23.73
2018-10-19T01:51:11.437Z,24.87
2018-10-19T01:53:41.446Z,23.80
2018-10-19T01:56:11.344Z,21.80
2018-10-19T01:58:41.316Z,22.60
2018-10-19T02:01:11.260Z,21.13
2018-10-19T02:03:41.303Z,20.63
2018-10-19T02:06:11.424Z,19.97
2018-10-19T02:08:41.280Z,27.50
2018-10-19T02:11:11.242Z,22.60
2018-10-19T02:13:41.192Z,25.50
2018-10-19T02:16:11.199Z,24.20
2018-10-19T02:18:41.427Z,21.13
2018-10-19T02:21:11.322Z,21.30
2018-10-19T02:23:41.379Z,27.27
2018-10-19T02:26:11.441Z,20.47
2018-10-19T02:28:41.297Z,19.97
2018-10-19T02:31:11.363Z,17.73
2018-10-19T02:33:41.447Z,19.53
2018-10-19T02:36:11.311Z,19.90
2018-10-19T02:38:41.344Z,22.30
2018-10-19T02:41:11.474Z,19.97
2018-10-19T02:43:41.446Z,22.33
2018-10-19T02:46:11.579Z,27.33
2018-10-19T02:48:41.757Z,23.43
2018-10-19T02:51:11.862Z,22.50
2018-10-19T02:53:41.828Z,20.50
2018-10-19T02:56:11.998Z,18.70
2018-10-19T02:58:42.096Z,25.37
2018-10-19T03:01:11.962Z,21.80
2018-10-19T03:03:41.931Z,23.67
2018-10-19T03:06:12.021Z,22.93
2018-10-19T03:08:41.915Z,28.80
2018-10-19T03:11:12.023Z,24.33
2018-10-19T03:13:41.896Z,21.63
2018-10-19T03:16:11.913Z,28.20
2018-10-19T03:18:42.028Z,22.67
2018-10-19T03:21:11.987Z,22.60
2018-10-19T03:23:42.200Z,21.60
2018-10-19T03:26:12.255Z,23.77
2018-10-19T03:28:43.271Z,22.00
2018-10-19T03:31:13.503Z,24.00
2018-10-19T03:33:43.485Z,24.30
2018-10-19T03:36:13.469Z,21.40
2018-10-19T03:38:43.858Z,22.50
2018-10-19T03:41:13.824Z,23.87
2018-10-19T03:43:43.716Z,18.20
2018-10-19T03:46:13.782Z,22.23
2018-10-19T03:48:44.023Z,20.37
2018-10-19T03:51:14.068Z,20.67
2018-10-19T03:53:44.192Z,24.37
2018-10-19T03:56:14.605Z,20.47
2018-10-19T03:58:44.574Z,24.03
2018-10-19T04:01:14.608Z,26.33
2018-10-19T04:03:44.819Z,22.97
2018-10-19T04:06:14.652Z,20.97
2018-10-19T04:08:44.605Z,26.03
2018-10-19T04:11:14.874Z,21.87
2018-10-19T04:13:45.009Z,25.10
2018-10-19T04:16:15.218Z,26.23
2018-10-19T04:18:45.144Z,22.20
2018-10-19T04:21:15.901Z,19.77
2018-10-19T04:23:45.858Z,23.13
2018-10-19T04:26:15.761Z,21.80
2018-10-19T04:28:45.768Z,22.57
2018-10-19T04:31:15.753Z,25.50
2018-10-19T04:33:45.786Z,20.50
2018-10-19T04:36:15.746Z,26.03
2018-10-19T04:38:45.719Z,22.60
2018-10-19T04:41:15.795Z,28.50
2018-10-19T04:43:45.932Z,25.00
2018-10-19T04:46:15.892Z,31.23
2018-10-19T04:48:46.674Z,25.27
2018-10-19T04:51:16.821Z,29.40
2018-10-19T04:53:46.987Z,30.43
2018-10-19T04:56:17.065Z,26.60
2018-10-19T04:58:46.957Z,31.83
2018-10-19T05:01:17.077Z,29.93
2018-10-19T05:03:47.508Z,29.77
2018-10-19T05:06:17.527Z,28.43
2018-10-19T05:08:47.575Z,30.30
2018-10-19T05:11:18.007Z,29.03
2018-10-19T05:13:49.919Z,29.87
2018-10-19T05:16:22.094Z,31.80
2018-10-19T05:18:52.439Z,32.47
2018-10-19T05:21:22.800Z,29.57
2018-10-19T05:23:52.845Z,30.20
2018-10-19T05:26:22.783Z,32.40
2018-10-19T05:28:52.843Z,29.87
2018-10-19T05:31:24.336Z,31.43
2018-10-19T05:33:56.649Z,33.80
2018-10-19T05:36:27.206Z,32.50
2018-10-19T05:38:57.377Z,25.73
2018-10-19T05:41:27.384Z,30.47
2018-10-19T05:43:57.380Z,30.60
2018-10-19T05:46:28.367Z,31.60
2018-10-19T05:48:58.744Z,31.97
2018-10-19T05:51:28.688Z,31.73
2018-10-19T05:53:58.892Z,29.00
2018-10-19T05:56:28.770Z,31.90
2018-10-19T05:58:58.692Z,29.67
2018-10-19T06:01:28.668Z,31.00
2018-10-19T06:03:58.670Z,32.53
2018-10-19T06:06:29.385Z,29.67
2018-10-19T06:09:17.914Z,28.10
2018-10-19T06:11:47.881Z,34.50
2018-10-19T06:14:17.847Z,31.33
2018-10-19T06:16:49.324Z,30.30
2018-10-19T06:19:21.184Z,33.33
2018-10-19T06:21:51.031Z,27.50
2018-10-19T06:24:21.868Z,29.20
2018-10-19T06:26:51.904Z,29.57
2018-10-19T06:29:23.292Z,29.30
2018-10-19T06:31:53.281Z,29.67
2018-10-19T06:34:23.255Z,32.00
2018-10-19T06:36:55.625Z,31.03
2018-10-19T06:39:28.328Z,28.90
2018-10-19T06:41:58.554Z,25.47
2018-10-19T06:44:41.527Z,29.80
2018-10-19T06:47:12.837Z,34.10
2018-10-19T06:49:42.757Z,27.17
2018-10-19T06:52:12.658Z,33.43
2018-10-19T06:54:42.661Z,32.33
2018-10-19T06:57:16.707Z,30.00
2018-10-19T06:59:47.319Z,28.47
2018-10-19T07:02:17.535Z,28.93
2018-10-19T07:04:47.407Z,32.60
2018-10-19T07:07:17.607Z,32.97
2018-10-19T07:09:47.767Z,30.47
2018-10-19T07:12:18.253Z,34.97
2018-10-19T07:14:48.752Z,34.67
2018-10-19T07:17:18.943Z,31.30
2018-10-19T07:19:51.034Z,37.13
2018-10-19T07:22:21.018Z,38.50
2018-10-19T07:24:52.117Z,32.63
2018-10-19T07:27:22.106Z,32.40
2018-10-19T07:29:52.317Z,26.07
2018-10-19T07:32:22.484Z,31.90
2018-10-19T07:34:52.796Z,30.50
2018-10-19T07:37:22.751Z,34.37
2018-10-19T07:39:52.722Z,30.83
2018-10-19T07:42:22.671Z,31.03
2018-10-19T07:44:52.994Z,25.87
2018-10-19T07:47:23.281Z,28.87
2018-10-19T07:49:53.030Z,29.13
2018-10-19T07:52:23.363Z,35.93
2018-10-19T07:54:53.365Z,32.93
2018-10-19T07:57:23.265Z,31.10
2018-10-19T08:00:06.572Z,29.60
2018-10-19T08:02:36.981Z,31.40
2018-10-19T08:05:08.842Z,33.63
2018-10-19T08:07:39.726Z,33.07
2018-10-19T08:10:10.681Z,30.40
2018-10-19T08:12:41.666Z,33.03
2018-10-19T08:15:14.027Z,31.60
2018-10-19T08:17:44.840Z,31.47
2018-10-19T08:20:15.663Z,26.47
2018-10-19T08:22:45.575Z,31.13
2018-10-19T08:25:16.173Z,28.10
2018-10-19T08:27:46.041Z,30.47
2018-10-19T08:30:16.892Z,36.40
2018-10-19T08:32:46.758Z,34.37
2018-10-19T08:35:16.711Z,32.73
2018-10-19T08:37:46.631Z,34.80
2018-10-19T08:40:16.621Z,33.93
2018-10-19T08:42:46.592Z,36.17
2018-10-19T08:45:16.650Z,33.77
2018-10-19T08:47:48.371Z,34.10
2018-10-19T08:50:26.598Z,30.93
2018-10-19T08:52:56.671Z,35.40
2018-10-19T08:55:27.263Z,31.33
2018-10-19T08:57:57.888Z,31.30
2018-10-19T09:00:27.731Z,32.53
2018-10-19T09:02:57.727Z,31.00
2018-10-19T09:05:29.717Z,28.27
2018-10-19T09:07:59.747Z,31.10
2018-10-19T09:10:29.688Z,31.30
2018-10-19T09:13:00.962Z,29.73
2018-10-19T09:15:31.633Z,30.83
2018-10-19T09:18:02.474Z,34.13
2018-10-19T09:20:32.582Z,29.33
2018-10-19T09:23:02.610Z,31.47
2018-10-19T09:25:33.428Z,31.17
2018-10-19T09:28:03.300Z,33.00
2018-10-19T09:30:33.516Z,35.27
2018-10-19T09:33:03.441Z,33.57
2018-10-19T09:35:33.579Z,31.00
2018-10-19T09:38:03.431Z,32.67
2018-10-19T09:40:33.666Z,31.43
2018-10-19T09:43:03.448Z,32.57
2018-10-19T09:45:33.698Z,30.00
2018-10-19T09:48:04.408Z,36.80
2018-10-19T09:50:34.643Z,28.00
2018-10-19T09:53:09.746Z,31.73
2018-10-19T09:55:39.629Z,31.80
2018-10-19T09:58:09.748Z,28.43
2018-10-19T10:00:44.755Z,26.53
2018-10-19T10:03:14.664Z,29.27
2018-10-19T10:05:44.438Z,30.27
2018-10-19T10:08:15.817Z,27.23
2018-10-19T10:10:46.180Z,27.70
2018-10-19T10:13:15.994Z,29.83
2018-10-19T10:15:45.918Z,27.00
2018-10-19T10:18:15.752Z,35.03
2018-10-19T10:20:45.654Z,30.43
2018-10-19T10:23:15.835Z,27.13
2018-10-19T10:25:45.728Z,26.30
2018-10-19T10:28:15.754Z,30.10
2018-10-19T10:30:45.613Z,29.80
2018-10-19T10:33:15.451Z,30.40
2018-10-19T10:35:45.571Z,30.63
2018-10-19T10:38:15.581Z,30.30
2018-10-19T10:40:46.752Z,34.93
2018-10-19T10:43:16.783Z,29.17
2018-10-19T10:45:46.928Z,30.40
2018-10-19T10:48:17.116Z,31.03
2018-10-19T10:50:47.039Z,26.80
2018-10-19T10:53:17.111Z,28.93
2018-10-19T10:55:47.063Z,27.90
2018-10-19T10:58:17.241Z,27.37
2018-10-19T11:00:47.363Z,27.67
2018-10-19T11:03:17.356Z,26.50
2018-10-19T11:05:49.107Z,28.43
2018-10-19T11:08:19.208Z,27.17
2018-10-19T11:10:49.208Z,28.97
2018-10-19T11:13:19.139Z,27.80
2018-10-19T11:15:49.021Z,29.90
2018-10-19T11:18:18.924Z,26.37
2018-10-19T11:20:48.952Z,25.13
2018-10-19T11:23:19.414Z,27.87
2018-10-19T11:25:49.383Z,29.13
2018-10-19T11:28:19.294Z,26.93
2018-10-19T11:30:49.324Z,28.63
2018-10-19T11:33:19.127Z,27.87
2018-10-19T11:35:48.986Z,27.37
2018-10-19T11:38:19.197Z,26.53
2018-10-19T11:40:49.243Z,25.73
2018-10-19T11:43:19.384Z,26.30
2018-10-19T11:45:49.372Z,30.80
2018-10-19T11:48:19.339Z,25.67
2018-10-19T11:50:49.378Z,27.20
2018-10-19T11:53:19.457Z,27.50
2018-10-19T11:55:49.356Z,29.57
2018-10-19T11:58:19.225Z,27.93
2018-10-19T12:00:49.027Z,24.67
2018-10-19T12:03:19.198Z,25.80
2018-10-19T12:05:49.393Z,27.37
2018-10-19T12:08:19.458Z,25.23
2018-10-19T12:10:49.366Z,24.93
2018-10-19T12:13:19.372Z,25.27
2018-10-19T12:15:49.243Z,24.63
2018-10-19T12:18:19.272Z,23.03
2018-10-19T12:20:49.311Z,24.50
2018-10-19T12:23:19.332Z,24.07
2018-10-19T12:25:49.271Z,23.10
2018-10-19T12:28:19.367Z,23.20
2018-10-19T12:30:49.379Z,25.73
2018-10-19T12:33:19.237Z,25.83
2018-10-19T12:35:49.122Z,23.90
2018-10-19T12:38:18.936Z,25.00
2018-10-19T12:40:49.077Z,23.67
2018-10-19T12:43:19.148Z,23.63
2018-10-19T12:46:31.736Z,23.93
2018-10-19T12:49:01.617Z,24.40
2018-10-19T12:51:31.481Z,23.70
2018-10-19T12:54:01.709Z,25.93
2018-10-19T12:56:31.717Z,23.33
2018-10-19T12:59:01.578Z,23.67
2018-10-19T13:01:31.879Z,22.57
2018-10-19T13:04:02.206Z,25.10
2018-10-19T13:06:32.365Z,23.67
2018-10-19T13:09:02.683Z,25.23
2018-10-19T13:11:32.489Z,22.70
2018-10-19T13:14:02.541Z,25.43
2018-10-19T13:16:32.344Z,21.50
2018-10-19T13:19:02.148Z,23.10
2018-10-19T13:21:32.261Z,24.33
2018-10-19T13:24:02.064Z,23.63
2018-10-19T13:26:32.058Z,23.60
2018-10-19T13:29:01.896Z,23.60
2018-10-19T13:31:31.803Z,23.23
2018-10-19T13:34:01.934Z,22.50
2018-10-19T13:36:31.980Z,22.37
2018-10-19T13:39:02.009Z,24.53
2018-10-19T13:41:32.053Z,23.10
2018-10-19T13:44:01.797Z,22.50
2018-10-19T13:46:31.599Z,21.40
2018-10-19T13:49:01.472Z,23.27
2018-10-19T13:51:31.510Z,24.07
2018-10-19T13:54:01.429Z,23.43
2018-10-19T13:56:31.775Z,27.10
2018-10-19T13:59:01.675Z,25.70
2018-10-19T14:01:31.630Z,24.87
2018-10-19T14:04:01.580Z,21.90
2018-10-19T14:06:31.506Z,26.03
2018-10-19T14:09:01.405Z,23.97
2018-10-19T14:11:31.300Z,24.20
2018-10-19T14:14:01.192Z,26.60
2018-10-19T14:16:31.378Z,25.60
2018-10-19T14:19:01.383Z,23.43
2018-10-19T14:21:31.414Z,28.90
2018-10-19T14:24:01.541Z,29.10
2018-10-19T14:26:31.449Z,31.90
2018-10-19T14:29:01.500Z,28.13
2018-10-19T14:31:31.429Z,30.00
2018-10-19T14:34:01.194Z,31.93
2018-10-19T14:36:31.170Z,29.90
2018-10-19T14:39:01.157Z,30.77
2018-10-19T14:41:31.094Z,31.40
2018-10-19T14:44:01.074Z,30.33
2018-10-19T14:46:31.177Z,28.03
2018-10-19T14:49:01.153Z,31.30
2018-10-19T14:51:30.735Z,27.53
2018-10-19T14:54:00.703Z,32.90
2018-10-19T14:56:30.655Z,34.03
2018-10-19T14:59:05.978Z,26.93
2018-10-19T15:01:36.188Z,28.97
2018-10-19T15:04:07.059Z,28.57
2018-10-19T15:06:37.350Z,31.17
2018-10-19T15:09:11.003Z,30.43
2018-10-19T15:11:42.317Z,28.83
2018-10-19T15:14:12.083Z,30.47
2018-10-19T15:16:42.013Z,31.43
2018-10-19T15:19:11.954Z,40.90
2018-10-19T15:21:42.057Z,39.17
2018-10-19T15:24:12.099Z,32.27
2018-10-19T15:26:42.342Z,32.00
2018-10-19T15:29:12.278Z,32.23
2018-10-19T15:31:42.000Z,33.33
2018-10-19T15:34:12.134Z,36.93
2018-10-19T15:36:42.316Z,30.90
2018-10-19T15:39:12.681Z,32.67
2018-10-19T15:41:42.623Z,30.23
2018-10-19T15:44:12.482Z,32.10
2018-10-19T15:46:42.364Z,30.40
2018-10-19T15:49:12.219Z,33.50
2018-10-19T15:51:42.262Z,31.07
2018-10-19T15:54:12.174Z,28.40
2018-10-19T15:56:41.912Z,28.00
2018-10-19T15:59:12.279Z,29.23
2018-10-19T16:01:42.632Z,29.37
2018-10-19T16:04:12.751Z,27.53
2018-10-19T16:06:42.632Z,28.73
2018-10-19T16:09:14.435Z,30.20
2018-10-19T16:11:45.039Z,27.80
2018-10-19T16:14:15.037Z,29.17
2018-10-19T16:16:45.034Z,26.47
2018-10-19T16:19:15.141Z,34.07
2018-10-19T16:21:46.145Z,28.60
2018-10-19T16:24:15.987Z,27.70
2018-10-19T16:26:46.007Z,27.37
2018-10-19T16:29:16.063Z,25.47
2018-10-19T16:31:45.950Z,27.13
2018-10-19T16:34:16.016Z,24.77
2018-10-19T16:36:46.345Z,29.40
2018-10-19T16:39:16.730Z,31.77
2018-10-19T16:41:46.539Z,27.73
2018-10-19T16:44:16.543Z,25.23
2018-10-19T16:46:46.385Z,29.40
2018-10-19T16:49:16.389Z,29.17
2018-10-19T16:51:46.342Z,30.30
2018-10-19T16:54:16.322Z,26.90
2018-10-19T16:56:47.494Z,24.90
2018-10-19T16:59:17.365Z,27.73
2018-10-19T17:01:47.291Z,27.50
2018-10-19T17:04:17.094Z,28.07
2018-10-19T17:06:46.987Z,30.70
2018-10-19T17:09:17.154Z,29.67
2018-10-19T17:11:46.889Z,25.80
2018-10-19T17:14:17.048Z,22.80
2018-10-19T17:16:46.897Z,25.97
2018-10-19T17:19:18.037Z,26.13
2018-10-19T17:21:47.941Z,27.70
2018-10-19T17:24:18.032Z,22.87
2018-10-19T17:26:48.699Z,22.37
2018-10-19T17:29:18.672Z,24.20
2018-10-19T17:31:48.704Z,23.60
2018-10-19T17:34:18.668Z,25.13
2018-10-19T17:36:48.697Z,22.47
2018-10-19T17:39:18.676Z,23.00
2018-10-19T17:41:48.850Z,22.33
2018-10-19T17:44:18.672Z,23.80
2018-10-19T17:46:49.471Z,23.73
2018-10-19T17:49:19.460Z,21.53
2018-10-19T17:51:50.416Z,19.27
2018-10-19T17:54:20.498Z,21.13
2018-10-19T17:56:50.563Z,22.10
2018-10-19T17:59:20.605Z,20.37
2018-10-19T18:01:50.716Z,26.90
2018-10-19T18:04:20.712Z,22.67
2018-10-19T18:06:50.548Z,22.27
2018-10-19T18:09:20.347Z,21.97
2018-10-19T18:11:50.127Z,25.07
2018-10-19T18:14:20.172Z,26.40
2018-10-19T18:16:50.154Z,22.50
2018-10-19T18:19:20.097Z,20.97
2018-10-19T18:21:50.020Z,22.33
2018-10-19T18:24:19.953Z,22.93
2018-10-19T18:26:49.719Z,21.30
2018-10-19T18:29:19.711Z,28.97
2018-10-19T18:31:49.747Z,21.07
2018-10-19T18:34:19.986Z,28.63
2018-10-19T18:36:49.860Z,21.33
2018-10-19T18:39:19.856Z,24.97
2018-10-19T18:41:49.733Z,24.00
2018-10-19T18:44:19.751Z,19.53
2018-10-19T18:46:49.755Z,26.00
2018-10-19T18:49:19.768Z,23.50
2018-10-19T18:51:49.802Z,24.67
2018-10-19T18:54:19.836Z,21.00
2018-10-19T18:56:49.709Z,21.83
2018-10-19T18:59:19.455Z,18.93
2018-10-19T19:01:49.499Z,23.33
2018-10-19T19:04:19.527Z,26.93
2018-10-19T19:06:49.348Z,31.63
2018-10-19T19:09:19.457Z,20.17
2018-10-19T19:11:49.543Z,20.33
2018-10-19T19:14:19.337Z,22.03
2018-10-19T19:16:49.361Z,20.33
2018-10-19T19:19:19.410Z,24.83
2018-10-19T19:21:49.436Z,19.67
2018-10-19T19:24:24.269Z,20.47
2018-10-19T19:26:54.320Z,18.37
2018-10-19T19:29:25.201Z,21.43
2018-10-19T19:31:55.369Z,17.73
2018-10-19T19:34:32.347Z,17.97
2018-10-19T19:37:02.495Z,21.20
2018-10-19T19:39:32.477Z,15.23
2018-10-19T19:42:07.700Z,17.07
2018-10-19T19:44:37.651Z,18.27
2018-10-19T19:47:07.703Z,20.50
2018-10-19T19:49:39.173Z,22.93
2018-10-19T19:52:08.948Z,17.33
2018-10-19T19:54:38.795Z,19.10
2018-10-19T19:57:08.728Z,16.63
2018-10-19T19:59:38.827Z,18.07
2018-10-19T20:02:09.193Z,17.40
2018-10-19T20:04:39.028Z,14.80
2018-10-19T20:07:08.969Z,15.53
2018-10-19T20:09:39.040Z,16.93
2018-10-19T20:12:09.121Z,23.40
2018-10-19T20:14:39.041Z,20.73
2018-10-19T20:17:09.138Z,16.50
2018-10-19T20:19:39.162Z,16.10
2018-10-19T20:22:09.739Z,17.77
2018-10-19T20:24:40.973Z,16.03
2018-10-19T20:27:11.504Z,15.57
2018-10-19T20:29:42.033Z,16.33
2018-10-19T20:32:11.946Z,18.40
2018-10-19T20:34:41.907Z,17.93
2018-10-19T20:37:11.826Z,16.80
2018-10-19T20:39:41.808Z,16.33
2018-10-19T20:42:12.725Z,12.70
2018-10-19T20:44:42.576Z,20.97
2018-10-19T20:47:12.640Z,14.80
2018-10-19T20:49:42.550Z,14.97
2018-10-19T20:52:12.644Z,13.87
2018-10-19T20:54:42.564Z,19.60
2018-10-19T20:57:12.601Z,10.90
2018-10-19T20:59:42.556Z,15.20
2018-10-19T21:02:12.564Z,12.63
2018-10-19T21:04:42.279Z,16.97
2018-10-19T21:07:12.131Z,13.60
2018-10-19T21:09:42.167Z,16.03
2018-10-19T21:12:12.213Z,18.53
2018-10-19T21:14:42.120Z,14.63
2018-10-19T21:17:12.169Z,16.77
2018-10-19T21:19:42.080Z,13.80
2018-10-19T21:22:14.075Z,14.40
2018-10-19T21:24:43.893Z,13.57
2018-10-19T21:27:13.815Z,13.53
2018-10-19T21:29:43.757Z,17.20
2018-10-19T21:32:13.763Z,14.73
2018-10-19T21:34:43.543Z,12.93
2018-10-19T21:37:13.377Z,12.17
2018-10-19T21:39:43.370Z,16.70
2018-10-19T21:42:13.338Z,17.73
2018-10-19T21:44:43.209Z,18.67
2018-10-19T21:47:13.199Z,16.33
2018-10-19T21:49:43.206Z,16.77
2018-10-19T21:52:13.166Z,16.67
2018-10-19T21:54:43.087Z,14.33
2018-10-19T21:57:12.962Z,15.07
2018-10-19T21:59:42.939Z,13.47
2018-10-19T22:02:12.911Z,14.93
2018-10-19T22:04:42.713Z,16.30
2018-10-19T22:07:12.593Z,13.27
2018-10-19T22:09:42.636Z,14.77
2018-10-19T22:12:12.563Z,21.03
2018-10-19T22:14:42.488Z,14.40
2018-10-19T22:17:12.451Z,17.57
2018-10-19T22:19:42.306Z,14.27
2018-10-19T22:22:12.277Z,15.70
2018-10-19T22:24:42.251Z,13.40
2018-10-19T22:27:12.247Z,13.27
2018-10-19T22:29:42.138Z,13.33
2018-10-19T22:32:12.129Z,17.60
2018-10-19T22:34:41.871Z,13.03
2018-10-19T22:37:11.818Z,17.57
2018-10-19T22:39:41.638Z,10.90
2018-10-19T22:42:11.619Z,13.10
2018-10-19T22:44:41.440Z,14.10
2018-10-19T22:47:11.476Z,12.23
2018-10-19T22:49:41.423Z,13.83
2018-10-19T22:52:11.533Z,13.30
2018-10-19T22:54:41.407Z,14.60
2018-10-19T22:57:11.359Z,17.67
2018-10-19T22:59:41.281Z,14.60
2018-10-19T23:02:11.169Z,13.63
2018-10-19T23:04:41.376Z,13.40
2018-10-19T23:07:11.432Z,15.40
2018-10-19T23:09:41.314Z,17.73
2018-10-19T23:12:11.267Z,17.03
2018-10-19T23:14:41.121Z,14.77
2018-10-19T23:17:11.162Z,15.00
2018-10-19T23:19:41.005Z,14.80
2018-10-19T23:22:10.861Z,17.00
2018-10-19T23:24:40.645Z,13.17
2018-10-19T23:27:10.637Z,12.70
2018-10-19T23:29:40.639Z,13.40
2018-10-19T23:32:10.548Z,18.10
2018-10-19T23:34:41.475Z,13.63
2018-10-19T23:37:11.472Z,14.67
2018-10-19T23:39:41.407Z,16.67
2018-10-19T23:42:11.269Z,14.60
2018-10-19T23:44:41.277Z,16.97
2018-10-19T23:47:11.130Z,13.13
2018-10-19T23:49:41.071Z,17.90
2018-10-19T23:52:11.161Z,13.63
2018-10-19T23:54:41.111Z,19.10
2018-10-19T23:57:11.016Z,15.00
2018-10-19T23:59:40.920Z,14.97
